Time;durP1;ratioP1;P1;durP2;ratioP2;P2;SDS_P1;SDS_P2;PMS_P1;PMS_P2;Temp;Humidity;BMP_temperature;BMP_pressure;BME280_temperature;BME280_humidity;BME280_pressure;Samples;Min_cycle;Max_cycle;Signal;HPM_P1;HPM_P2
2022/05/19 00:00:17;;;;;;;6.30;3.47;;;18.70;98.20;;;;;;4166061;28;20235;-77
2022/05/19 00:02:19;;;;;;;6.80;3.63;;;18.70;98.20;;;;;;4196530;28;20689;-77
2022/05/19 00:04:27;;;;;;;4.50;3.27;;;18.60;98.40;;;;;;4196871;28;20212;-77
2022/05/19 00:06:29;;;;;;;5.70;3.37;;;18.60;98.40;;;;;;4178342;28;20210;-77
2022/05/19 00:08:32;;;;;;;5.30;3.53;;;18.60;98.70;;;;;;4197689;28;20299;-77
2022/05/19 00:10:34;;;;;;;8.73;4.00;;;18.50;98.80;;;;;;4198956;28;20245;-77
2022/05/19 00:12:35;;;;;;;5.50;3.87;;;18.50;99.00;;;;;;4173658;28;20206;-78
2022/05/19 00:14:37;;;;;;;8.53;3.67;;;18.50;99.30;;;;;;4197129;28;20211;-77
2022/05/19 00:16:40;;;;;;;7.80;4.00;;;18.50;99.50;;;;;;4173765;28;20656;-77
2022/05/19 00:18:41;;;;;;;5.60;3.73;;;18.40;99.60;;;;;;4180110;28;20211;-77
2022/05/19 00:20:45;;;;;;;5.97;3.83;;;18.40;99.60;;;;;;4197407;28;20288;-77
2022/05/19 00:22:46;;;;;;;7.40;4.07;;;18.40;99.80;;;;;;4197846;28;20667;-78
2022/05/19 00:24:48;;;;;;;6.60;3.53;;;18.30;99.80;;;;;;4180637;28;20236;-77
2022/05/19 00:26:50;;;;;;;5.90;3.70;;;18.40;99.90;;;;;;4197170;28;20712;-78
2022/05/19 00:28:52;;;;;;;5.00;3.50;;;18.30;99.90;;;;;;4198061;28;20198;-77
2022/05/19 00:30:53;;;;;;;5.07;3.20;;;18.00;99.90;;;;;;4196315;28;20599;-77
2022/05/19 00:32:55;;;;;;;4.67;3.87;;;18.20;99.90;;;;;;4174132;28;20206;-78
2022/05/19 00:34:57;;;;;;;6.03;3.50;;;18.20;99.90;;;;;;4197469;28;20205;-78
2022/05/19 00:37:02;;;;;;;6.30;3.53;;;18.10;99.90;;;;;;4195474;28;20222;-77
2022/05/19 00:39:04;;;;;;;6.70;3.70;;;18.10;99.90;;;;;;4198070;28;20206;-77
2022/05/19 00:41:07;;;;;;;5.50;3.50;;;18.10;99.90;;;;;;4176390;28;20742;-77
2022/05/19 00:43:09;;;;;;;7.53;4.27;;;18.10;99.90;;;;;;4198337;28;20212;-76
2022/05/19 00:45:12;;;;;;;10.10;3.90;;;18.00;99.90;;;;;;4176021;28;20687;-78
2022/05/19 00:47:20;;;;;;;6.90;3.80;;;18.00;99.90;;;;;;4196647;28;20260;-78
2022/05/19 00:49:26;;;;;;;8.07;3.77;;;18.00;99.90;;;;;;4196918;28;20680;-77
2022/05/19 00:51:37;;;;;;;8.87;3.80;;;18.00;99.90;;;;;;4196355;28;20228;-77
2022/05/19 00:53:48;;;;;;;5.50;3.57;;;17.90;99.90;;;;;;4195560;28;20709;-78
2022/05/19 00:55:52;;;;;;;4.77;2.97;;;17.90;99.90;;;;;;4197602;28;20572;-78
2022/05/19 00:57:59;;;;;;;7.80;3.97;;;17.90;99.90;;;;;;4196022;28;20279;-77
2022/05/19 01:00:05;;;;;;;9.13;3.93;;;17.90;99.90;;;;;;4197172;28;20225;-77
2022/05/19 01:02:10;;;;;;;6.13;3.90;;;17.80;99.90;;;;;;4195822;28;20217;-77
2022/05/19 01:04:20;;;;;;;6.70;3.57;;;17.80;99.90;;;;;;4196757;28;20209;-78
2022/05/19 01:06:24;;;;;;;5.13;3.40;;;17.80;99.90;;;;;;4192598;28;20459;-77
2022/05/19 01:08:31;;;;;;;7.50;3.80;;;17.80;99.90;;;;;;4195583;28;20241;-78
2022/05/19 01:10:35;;;;;;;7.27;3.90;;;17.80;99.90;;;;;;4187881;28;20236;-77
2022/05/19 01:12:38;;;;;;;6.47;3.73;;;17.80;99.90;;;;;;4191621;28;20562;-77
2022/05/19 01:14:40;;;;;;;5.33;3.53;;;17.60;99.90;;;;;;4195445;28;20214;-77
2022/05/19 01:16:42;;;;;;;7.63;4.10;;;17.70;99.90;;;;;;4194099;28;20233;-77
2022/05/19 01:18:44;;;;;;;5.17;3.70;;;17.60;99.90;;;;;;4195417;28;20220;-76
2022/05/19 01:20:48;;;;;;;8.47;4.10;;;17.60;99.90;;;;;;4195412;28;20222;-77
2022/05/19 01:22:56;;;;;;;6.53;3.37;;;17.60;99.90;;;;;;4188991;28;20213;-76
2022/05/19 02:13:13;;;;;;;5.77;3.97;;;16.90;99.90;;;;;;4195508;28;21047;-77
2022/05/19 02:15:19;;;;;;;5.77;3.50;;;16.90;99.90;;;;;;4171349;28;20786;-77
2022/05/19 02:17:24;;;;;;;7.43;3.70;;;16.90;99.90;;;;;;4195067;28;20716;-78
2022/05/19 02:19:31;;;;;;;7.47;3.67;;;16.90;99.90;;;;;;4178730;28;20210;-77
2022/05/19 02:21:33;;;;;;;5.47;4.03;;;16.90;99.90;;;;;;4196463;28;20292;-78
2022/05/19 02:23:36;;;;;;;5.87;3.77;;;16.90;99.90;;;;;;4199640;28;20583;-77
2022/05/19 02:25:42;;;;;;;5.20;3.70;;;17.00;99.90;;;;;;4193688;28;20202;-77
2022/05/19 02:27:52;;;;;;;5.83;3.70;;;16.70;99.90;;;;;;4182573;28;20210;-77
2022/05/19 02:29:56;;;;;;;7.10;4.30;;;16.80;99.90;;;;;;4182021;28;20252;-78
2022/05/19 02:31:58;;;;;;;5.47;3.83;;;16.70;99.90;;;;;;4197881;28;20301;-77
2022/05/19 02:33:59;;;;;;;6.10;3.90;;;16.70;99.90;;;;;;4200013;28;20206;-78
2022/05/19 02:36:01;;;;;;;5.77;3.70;;;16.70;99.90;;;;;;4199839;28;20561;-77
2022/05/19 02:38:03;;;;;;;6.30;4.30;;;16.70;99.90;;;;;;4191922;28;20245;-77
2022/05/19 02:40:07;;;;;;;7.67;3.80;;;16.70;99.90;;;;;;4198030;28;20304;-77
2022/05/19 02:42:09;;;;;;;7.60;3.70;;;16.60;99.90;;;;;;4169933;28;20230;-77
2022/05/19 02:44:11;;;;;;;7.17;3.90;;;16.60;99.90;;;;;;4194136;28;20209;-77
2022/05/19 02:46:14;;;;;;;7.67;4.33;;;16.60;99.90;;;;;;4199549;28;20206;-77
2022/05/19 02:48:17;;;;;;;6.93;3.90;;;16.60;99.90;;;;;;4192940;28;20212;-77
2022/05/19 02:50:20;;;;;;;8.73;3.83;;;16.50;99.90;;;;;;4175522;28;20292;-77
2022/05/19 02:52:22;;;;;;;6.57;3.73;;;16.50;99.90;;;;;;4188173;28;20208;-77
2022/05/19 02:54:24;;;;;;;6.87;3.87;;;16.50;99.90;;;;;;4197486;28;20267;-78
2022/05/19 02:56:26;;;;;;;8.20;4.70;;;16.50;99.90;;;;;;4181588;28;20241;-78
2022/05/19 02:58:28;;;;;;;8.13;4.53;;;16.40;99.90;;;;;;4186051;28;20665;-76
2022/05/19 03:00:29;;;;;;;8.73;4.63;;;16.40;99.90;;;;;;4181318;28;20234;-77
2022/05/19 03:02:32;;;;;;;5.17;3.97;;;16.40;99.90;;;;;;4199208;28;20693;-78
2022/05/19 03:04:34;;;;;;;5.47;4.03;;;16.40;99.90;;;;;;4198989;28;20216;-78
2022/05/19 03:06:36;;;;;;;5.63;3.73;;;16.40;99.90;;;;;;4183759;28;20309;-77
2022/05/19 03:08:38;;;;;;;6.20;3.80;;;16.30;99.90;;;;;;4181080;28;20253;-77
2022/05/19 03:10:42;;;;;;;7.27;3.80;;;16.30;99.90;;;;;;4173413;28;20782;-77
2022/05/19 03:12:47;;;;;;;5.07;3.57;;;16.30;99.90;;;;;;4172901;28;20210;-77
2022/05/19 03:14:49;;;;;;;5.97;3.90;;;16.30;99.90;;;;;;4180086;28;20697;-78
2022/05/19 03:16:51;;;;;;;4.90;3.80;;;16.20;99.90;;;;;;4193867;28;20592;-77
2022/05/19 03:18:54;;;;;;;7.93;4.27;;;16.20;99.90;;;;;;4180883;28;20217;-77
2022/05/19 03:20:56;;;;;;;6.40;3.63;;;16.20;99.90;;;;;;4198475;28;20221;-78
2022/05/19 03:22:57;;;;;;;6.07;3.57;;;16.20;99.90;;;;;;4176647;28;20221;-77
2022/05/19 03:25:00;;;;;;;8.50;3.80;;;16.10;99.90;;;;;;4180883;28;20237;-78
2022/05/19 03:27:02;;;;;;;5.27;4.00;;;16.10;99.90;;;;;;4179665;28;20213;-77
2022/05/19 03:29:04;;;;;;;6.60;3.90;;;16.10;99.90;;;;;;4197087;28;20296;-77
2022/05/19 03:31:06;;;;;;;5.40;3.83;;;16.10;99.90;;;;;;4197709;28;20233;-77
2022/05/19 03:33:08;;;;;;;7.47;3.80;;;16.00;99.90;;;;;;4197412;28;20208;-77
2022/05/19 03:35:15;;;;;;;7.03;3.70;;;16.00;99.90;;;;;;4197810;28;20220;-77
2022/05/19 03:37:17;;;;;;;8.57;4.20;;;16.00;99.90;;;;;;4197430;28;20198;-76
2022/05/19 03:39:19;;;;;;;6.00;3.50;;;16.00;99.90;;;;;;4194055;28;20352;-78
2022/05/19 03:41:21;;;;;;;5.30;4.00;;;16.00;99.90;;;;;;4199058;28;20240;-78
2022/05/19 03:43:23;;;;;;;7.87;4.30;;;16.00;99.90;;;;;;4199158;28;20253;-77
2022/05/19 03:45:25;;;;;;;6.30;4.00;;;16.00;99.90;;;;;;4199874;28;20216;-77
2022/05/19 03:47:27;;;;;;;4.67;3.73;;;16.00;99.90;;;;;;4198818;28;20276;-78
2022/05/19 03:49:29;;;;;;;6.80;4.03;;;16.00;99.90;;;;;;4195326;28;20210;-78
2022/05/19 03:51:34;;;;;;;5.70;3.80;;;16.00;99.90;;;;;;4181839;28;20240;-78
2022/05/19 03:53:35;;;;;;;5.30;3.70;;;16.00;99.90;;;;;;4192038;28;20588;-76
2022/05/19 03:55:38;;;;;;;7.10;4.17;;;16.00;99.90;;;;;;4198437;28;20257;-78
2022/05/19 03:57:40;;;;;;;6.23;3.90;;;16.00;99.90;;;;;;4198102;28;20221;-76
2022/05/19 03:59:42;;;;;;;7.07;3.67;;;16.20;99.90;;;;;;4194305;28;20235;-77
2022/05/19 04:01:44;;;;;;;6.77;4.00;;;16.00;99.90;;;;;;4180202;28;20296;-76
2022/05/19 04:03:47;;;;;;;13.80;3.60;;;16.00;99.90;;;;;;4196179;28;20694;-75
2022/05/19 04:05:49;;;;;;;5.27;3.90;;;16.00;99.90;;;;;;4180082;28;20226;-77
2022/05/19 04:07:52;;;;;;;5.60;3.40;;;16.00;99.90;;;;;;4194320;28;20210;-77
2022/05/19 04:09:54;;;;;;;5.87;3.60;;;16.00;99.90;;;;;;4179721;28;20240;-77
2022/05/19 04:11:56;;;;;;;9.50;4.00;;;16.00;99.90;;;;;;4196786;28;20245;-77
2022/05/19 04:13:58;;;;;;;5.43;3.57;;;16.00;99.90;;;;;;4198874;28;20304;-79
2022/05/19 04:16:00;;;;;;;4.97;3.67;;;16.00;99.90;;;;;;4199122;28;20299;-79
2022/05/19 04:18:02;;;;;;;6.23;3.80;;;16.10;99.90;;;;;;4180771;28;20236;-80
2022/05/19 04:20:07;;;;;;;6.33;3.40;;;16.00;99.90;;;;;;4200160;28;20227;-80
2022/05/19 04:22:09;;;;;;;7.83;3.83;;;16.00;99.90;;;;;;4196854;28;20190;-79
2022/05/19 04:24:12;;;;;;;6.73;3.73;;;16.10;99.90;;;;;;4181754;28;20224;-78
2022/05/19 04:26:16;;;;;;;5.10;3.47;;;16.10;99.90;;;;;;4182222;28;20211;-80
2022/05/19 04:28:18;;;;;;;5.47;3.50;;;16.10;99.90;;;;;;4195231;28;20211;-80
2022/05/19 04:30:21;;;;;;;5.67;3.20;;;16.10;99.90;;;;;;4195923;28;20230;-79
2022/05/19 04:32:23;;;;;;;6.43;3.57;;;16.10;99.90;;;;;;4198782;28;20213;-80
2022/05/19 04:34:25;;;;;;;6.60;3.50;;;16.10;99.90;;;;;;4182041;28;20240;-79
2022/05/19 04:36:26;;;;;;;7.87;3.60;;;16.50;99.90;;;;;;4199977;28;20208;-79
2022/05/19 04:38:28;;;;;;;4.53;3.27;;;16.20;99.90;;;;;;4181892;28;20225;-78
2022/05/19 04:40:37;;;;;;;5.90;3.37;;;16.20;99.90;;;;;;4196472;28;20236;-78
2022/05/19 04:42:39;;;;;;;6.20;3.40;;;16.20;99.90;;;;;;4195384;28;20204;-78
2022/05/19 04:44:41;;;;;;;6.03;3.10;;;16.20;99.90;;;;;;4189623;28;20205;-78
2022/05/19 04:46:46;;;;;;;6.43;3.47;;;16.20;99.90;;;;;;4174665;28;20215;-78
2022/05/19 04:48:47;;;;;;;9.10;3.90;;;16.30;99.90;;;;;;4174273;28;20330;-78
2022/05/19 04:50:51;;;;;;;8.97;4.63;;;16.30;99.90;;;;;;4191230;28;20252;-78
2022/05/19 04:52:53;;;;;;;6.57;3.97;;;16.30;99.90;;;;;;4196046;28;20202;-78
2022/05/19 04:54:54;;;;;;;6.60;3.77;;;16.30;99.90;;;;;;4183824;28;20241;-77
2022/05/19 04:56:58;;;;;;;6.33;3.70;;;16.30;99.90;;;;;;4192414;28;20202;-78
2022/05/19 04:58:59;;;;;;;5.27;3.43;;;16.40;99.90;;;;;;4195128;28;20292;-78
2022/05/19 05:01:01;;;;;;;7.20;3.30;;;16.40;99.90;;;;;;4194729;28;20229;-78
2022/05/19 05:03:04;;;;;;;7.03;3.30;;;16.50;99.90;;;;;;4193574;28;20206;-78
2022/05/19 05:05:08;;;;;;;7.43;3.20;;;16.40;99.90;;;;;;4238076;23;20290;-80
2022/05/19 05:07:10;;;;;;;6.33;3.23;;;16.50;99.90;;;;;;4187305;28;20203;-80
2022/05/19 05:09:12;;;;;;;9.40;3.40;;;16.50;99.90;;;;;;4185336;28;20702;-80
2022/05/19 05:11:15;;;;;;;5.00;3.27;;;16.50;99.90;;;;;;4180411;28;20198;-81
2022/05/19 05:13:18;;;;;;;5.60;2.87;;;16.60;99.90;;;;;;4162936;28;20214;-82
2022/05/19 05:15:20;;;;;;;5.20;3.60;;;16.60;99.90;;;;;;4179789;28;20239;-82
2022/05/19 05:17:22;;;;;;;5.57;2.87;;;16.70;99.90;;;;;;4180076;28;20206;-80
2022/05/19 05:19:25;;;;;;;5.00;3.30;;;16.70;99.90;;;;;;4190515;28;20259;-81
2022/05/19 05:21:26;;;;;;;6.37;3.00;;;16.70;99.90;;;;;;4173689;28;20225;-81
2022/05/19 05:23:28;;;;;;;5.80;3.93;;;16.70;99.90;;;;;;4176060;28;20219;-80
2022/05/19 05:25:31;;;;;;;7.90;4.50;;;16.80;99.90;;;;;;4178350;28;20730;-80
2022/05/19 05:27:33;;;;;;;7.43;4.00;;;16.80;99.90;;;;;;4176393;28;20255;-80
2022/05/19 05:29:36;;;;;;;6.40;3.10;;;16.80;99.90;;;;;;4196380;28;20198;-80
2022/05/19 05:31:38;;;;;;;5.13;3.20;;;16.90;99.90;;;;;;4175418;28;20199;-81
2022/05/19 05:33:40;;;;;;;7.57;3.07;;;16.90;99.90;;;;;;4191966;28;20289;-80
2022/05/19 05:35:41;;;;;;;5.23;2.73;;;17.10;99.90;;;;;;4194381;28;20239;-80
2022/05/19 05:37:43;;;;;;;6.47;2.70;;;17.00;99.90;;;;;;4181390;28;20703;-80
2022/05/19 05:39:45;;;;;;;4.80;2.80;;;17.00;99.90;;;;;;4201615;28;20205;-80
2022/05/19 05:41:47;;;;;;;5.63;2.80;;;17.10;99.90;;;;;;4198797;28;20240;-81
2022/05/19 05:43:49;;;;;;;6.90;2.90;;;17.10;99.90;;;;;;4199303;28;20290;-80
2022/05/19 05:45:52;;;;;;;7.33;2.87;;;17.20;99.90;;;;;;4197317;28;20211;-80
2022/05/19 05:47:54;;;;;;;5.73;2.80;;;17.20;99.90;;;;;;4198824;28;20206;-80
2022/05/19 05:49:56;;;;;;;5.13;3.13;;;17.20;99.90;;;;;;4181830;28;20206;-80
2022/05/19 05:51:58;;;;;;;9.13;4.27;;;17.20;99.90;;;;;;4177721;28;20210;-80
2022/05/19 05:54:00;;;;;;;6.00;3.40;;;17.30;99.90;;;;;;4193063;28;20240;-80
2022/05/19 05:56:02;;;;;;;3.60;2.80;;;17.50;99.90;;;;;;4195575;28;20235;-80
2022/05/19 05:58:05;;;;;;;5.63;2.73;;;17.40;99.90;;;;;;4176298;28;20238;-80
2022/05/19 06:00:10;;;;;;;6.53;2.70;;;17.40;99.90;;;;;;4194094;28;20544;-80
2022/05/19 06:02:13;;;;;;;6.20;2.87;;;17.40;99.90;;;;;;4193317;28;20274;-80
2022/05/19 06:04:15;;;;;;;4.77;2.63;;;17.50;99.90;;;;;;4194670;28;20591;-80
2022/05/19 06:06:17;;;;;;;10.93;3.00;;;17.50;99.90;;;;;;4194244;28;20210;-80
2022/05/19 06:08:20;;;;;;;11.10;2.60;;;17.60;99.90;;;;;;4186668;28;20214;-80
2022/05/19 06:10:22;;;;;;;4.23;2.57;;;17.60;99.90;;;;;;4193729;28;20228;-81
2022/05/19 06:12:24;;;;;;;5.13;2.40;;;17.70;99.90;;;;;;4167236;28;20282;-80
2022/05/19 06:14:26;;;;;;;6.93;3.13;;;17.70;99.90;;;;;;4189033;28;20235;-80
2022/05/19 06:16:28;;;;;;;4.27;2.50;;;17.80;99.50;;;;;;4190354;28;20218;-80
2022/05/19 06:18:32;;;;;;;4.73;2.53;;;17.80;99.00;;;;;;4194584;28;20702;-81
2022/05/19 06:20:34;;;;;;;10.67;5.17;;;17.90;99.00;;;;;;4194750;28;20214;-81
2022/05/19 06:22:36;;;;;;;8.37;3.67;;;17.90;99.00;;;;;;4194297;28;20220;-80
2022/05/19 06:24:37;;;;;;;7.73;3.30;;;18.00;97.40;;;;;;4193561;28;20738;-80
2022/05/19 06:26:40;;;;;;;7.33;2.50;;;18.00;97.00;;;;;;4191093;28;20215;-80
2022/05/19 06:28:42;;;;;;;6.70;3.03;;;18.00;96.20;;;;;;4191654;28;20214;-81
2022/05/19 06:30:44;;;;;;;4.77;2.50;;;18.10;95.70;;;;;;4193934;28;20659;-80
2022/05/19 06:32:48;;;;;;;3.97;2.70;;;18.20;95.60;;;;;;4172182;28;20210;-83
2022/05/19 06:34:51;;;;;;;6.30;2.93;;;18.30;95.30;;;;;;4189237;28;20272;-79
2022/05/19 06:36:53;;;;;;;8.27;2.73;;;18.30;95.00;;;;;;4191694;28;20205;-80
2022/05/19 06:38:56;;;;;;;4.57;2.83;;;18.40;95.00;;;;;;4184023;28;20249;-80
2022/05/19 06:43:15;;;;;;;6.33;2.60;;;18.60;94.10;;;;;;4190713;28;20690;-80
2022/05/19 06:45:19;;;;;;;6.73;2.50;;;18.60;93.50;;;;;;4187586;28;20612;-80
2022/05/19 06:47:21;;;;;;;4.10;2.60;;;18.80;93.00;;;;;;4190251;28;20247;-80
2022/05/19 06:49:23;;;;;;;8.40;3.27;;;18.70;92.60;;;;;;4162886;28;20212;-80
2022/05/19 06:51:26;;;;;;;7.57;2.93;;;18.90;92.40;;;;;;4189190;28;20203;-80
2022/05/19 06:53:29;;;;;;;4.77;2.60;;;18.80;91.70;;;;;;4191305;28;20212;-80
2022/05/19 06:55:33;;;;;;;6.33;3.10;;;18.90;91.20;;;;;;4191840;28;20272;-80
2022/05/19 06:57:35;;;;;;;4.73;2.67;;;18.90;91.40;;;;;;4189344;28;20208;-80
2022/05/19 06:59:37;;;;;;;6.13;2.63;;;19.00;91.70;;;;;;4190239;28;20544;-79
2022/05/19 07:01:40;;;;;;;10.73;2.70;;;19.10;91.60;;;;;;4190771;28;20215;-80
2022/05/19 07:03:46;;;;;;;5.73;2.70;;;19.10;91.70;;;;;;4190600;28;20201;-80
2022/05/19 07:05:48;;;;;;;5.43;2.67;;;19.20;90.60;;;;;;4172807;28;20258;-80
2022/05/19 07:07:51;;;;;;;4.37;2.47;;;19.30;90.70;;;;;;4192374;28;20207;-80
2022/05/19 07:09:53;;;;;;;6.03;2.57;;;19.30;90.50;;;;;;4189440;28;20308;-80
2022/05/19 07:11:55;;;;;;;6.77;2.87;;;19.30;91.00;;;;;;4173625;28;20627;-80
2022/05/19 07:14:01;;;;;;;4.93;2.63;;;19.40;90.80;;;;;;4194502;28;20743;-80
2022/05/19 07:16:02;;;;;;;5.23;2.70;;;19.50;91.10;;;;;;4193782;28;20592;-80
2022/05/19 07:18:05;;;;;;;6.87;2.80;;;19.50;90.70;;;;;;4196335;28;20217;-80
2022/05/19 07:22:29;;;;;;;16.13;3.23;;;19.60;90.00;;;;;;4195549;28;20261;-80
2022/05/19 07:24:32;;;;;;;8.17;2.83;;;19.70;89.50;;;;;;4196197;28;20785;-80
2022/05/19 07:26:34;;;;;;;7.37;3.00;;;19.70;89.90;;;;;;4178429;28;20221;-80
2022/05/19 07:28:36;;;;;;;3.73;2.20;;;19.80;89.90;;;;;;4194541;28;20219;-80
2022/05/19 07:30:38;;;;;;;6.13;2.30;;;19.80;87.90;;;;;;4196786;28;20211;-80
2022/05/19 07:32:41;;;;;;;5.37;2.43;;;19.80;89.00;;;;;;4177490;28;20210;-80
2022/05/19 07:34:43;;;;;;;5.40;2.57;;;19.90;89.50;;;;;;4196467;28;20723;-80
2022/05/19 07:36:45;;;;;;;7.10;2.80;;;19.90;89.80;;;;;;4175019;28;20661;-80
2022/05/19 07:38:47;;;;;;;5.03;2.60;;;20.00;88.40;;;;;;4195786;28;20249;-80
2022/05/19 07:40:54;;;;;;;6.47;2.70;;;20.00;87.90;;;;;;4194370;28;20709;-80
2022/05/19 07:43:35;;;;;;;7.63;2.70;;;20.00;88.20;;;;;;4195430;28;20214;-80
2022/05/19 07:45:20;;;;;;;6.90;2.40;;;20.10;88.70;;;;;;4194730;28;20254;-80
2022/05/19 07:47:25;;;;;;;7.30;2.57;;;20.20;89.00;;;;;;4196848;28;20237;-80
2022/05/19 07:49:27;;;;;;;5.90;2.60;;;20.20;88.50;;;;;;4196903;28;20201;-80
2022/05/19 07:51:36;;;;;;;6.30;2.37;;;20.30;87.20;;;;;;4196311;28;20240;-80
2022/05/19 07:53:38;;;;;;;3.87;2.30;;;20.30;85.50;;;;;;4195131;28;20215;-80
2022/05/19 07:55:40;;;;;;;4.67;2.60;;;20.40;85.90;;;;;;4193843;28;20231;-80
2022/05/19 07:57:43;;;;;;;3.80;2.70;;;20.40;84.60;;;;;;4196359;28;20205;-80
2022/05/19 07:59:45;;;;;;;5.50;2.40;;;20.50;83.70;;;;;;4192194;28;20584;-80
2022/05/19 08:01:48;;;;;;;4.10;2.53;;;20.50;84.20;;;;;;4179519;28;20212;-80
2022/05/19 08:03:49;;;;;;;5.63;2.53;;;20.60;81.90;;;;;;4193243;28;20213;-80
2022/05/19 08:05:52;;;;;;;4.37;2.50;;;20.60;80.70;;;;;;4192313;28;20228;-80
2022/05/19 08:07:54;;;;;;;3.80;2.50;;;20.70;78.40;;;;;;4193277;28;20287;-80
2022/05/19 08:12:17;;;;;;;3.70;2.07;;;20.80;70.00;;;;;;4188032;28;20208;-80
2022/05/19 08:16:41;;;;;;;4.40;2.33;;;21.00;70.90;;;;;;4192319;28;20231;-80
2022/05/19 08:18:43;;;;;;;6.03;2.00;;;21.00;67.40;;;;;;4192899;28;20202;-81
2022/05/19 08:20:48;;;;;;;6.50;2.03;;;21.10;65.00;;;;;;4198847;28;20723;-79
2022/05/19 08:22:49;;;;;;;7.87;2.30;;;21.20;63.50;;;;;;4178084;28;20268;-81
2022/05/19 08:24:51;;;;;;;7.87;2.30;;;21.30;61.30;;;;;;4194024;28;20217;-80
2022/05/19 08:26:53;;;;;;;6.67;1.97;;;21.30;59.40;;;;;;4176514;28;20651;-83
2022/05/19 08:28:55;;;;;;;3.53;2.13;;;21.40;57.20;;;;;;4197906;28;20219;-81
2022/05/19 08:31:01;;;;;;;6.67;2.10;;;21.50;54.20;;;;;;4197123;28;20231;-81
2022/05/19 08:33:05;;;;;;;6.40;2.10;;;21.50;53.30;;;;;;4197150;28;20241;-80
2022/05/19 08:35:08;;;;;;;3.97;1.97;;;21.60;53.30;;;;;;4176714;28;20269;-81
2022/05/19 08:37:10;;;;;;;9.30;1.80;;;21.70;52.70;;;;;;4191123;28;20702;-80
2022/05/19 08:39:12;;;;;;;5.10;1.90;;;21.70;51.60;;;;;;4170720;28;20234;-81
2022/05/19 08:41:23;;;;;;;6.93;1.73;;;21.80;50.40;;;;;;4192275;28;20206;-81
2022/05/19 08:43:30;;;;;;;2.87;1.90;;;21.90;50.40;;;;;;4193360;28;20329;-79
2022/05/19 08:45:35;;;;;;;8.10;1.70;;;22.00;50.20;;;;;;4176695;28;20233;-82
2022/05/19 08:47:39;;;;;;;3.03;1.60;;;22.00;48.90;;;;;;4197254;28;20585;-81
2022/05/19 08:49:45;;;;;;;4.43;1.63;;;22.10;48.30;;;;;;4179010;28;20213;-82
2022/05/19 08:51:54;;;;;;;4.00;1.60;;;22.10;47.40;;;;;;4194353;28;20287;-82
2022/05/19 08:54:07;;;;;;;5.37;1.90;;;22.30;47.30;;;;;;4181312;28;20307;-82
2022/05/19 08:56:21;;;;;;;3.20;1.63;;;22.30;47.50;;;;;;4197785;28;20203;-82
2022/05/19 08:58:33;;;;;;;7.73;1.73;;;22.70;47.30;;;;;;4200447;28;20740;-82
2022/05/19 09:00:40;;;;;;;4.50;1.70;;;22.50;46.00;;;;;;4198730;28;20296;-82
2022/05/19 09:02:47;;;;;;;4.23;1.70;;;22.60;45.80;;;;;;4195491;28;20210;-82
2022/05/19 09:05:00;;;;;;;3.80;1.80;;;22.60;45.90;;;;;;4199681;28;20295;-82
2022/05/19 09:09:42;;;;;;;6.23;2.80;;;22.80;46.20;;;;;;4202084;28;20200;-82
2022/05/19 09:11:51;;;;;;;5.50;1.93;;;22.80;45.60;;;;;;4194703;28;20221;-82
2022/05/19 09:13:57;;;;;;;3.87;1.47;;;22.90;45.20;;;;;;4189587;28;20205;-82
2022/05/19 09:16:02;;;;;;;3.83;2.10;;;22.90;44.50;;;;;;4194098;28;20207;-81
2022/05/19 09:18:06;;;;;;;4.13;1.70;;;23.00;44.40;;;;;;4174582;28;20218;-83
2022/05/19 09:20:13;;;;;;;5.53;1.60;;;23.10;44.40;;;;;;4177947;28;20258;-83
2022/05/19 09:22:17;;;;;;;7.33;1.77;;;23.20;44.10;;;;;;4194963;28;20208;-82
2022/05/19 09:24:19;;;;;;;6.00;1.70;;;23.30;44.30;;;;;;4197484;28;20228;-81
2022/05/19 09:26:42;;;;;;;5.50;1.57;;;23.30;43.40;;;;;;4198989;28;20287;-81
2022/05/19 09:28:45;;;;;;;4.30;1.50;;;23.40;43.20;;;;;;4179499;28;20248;-83
2022/05/19 09:30:50;;;;;;;6.27;3.23;;;23.40;43.30;;;;;;4197375;28;20219;-82
2022/05/19 09:32:53;;;;;;;6.30;2.37;;;23.40;43.40;;;;;;4191923;28;20297;-81
2022/05/19 09:35:06;;;;;;;2.63;1.80;;;23.50;43.50;;;;;;4196046;28;20240;-83
2022/05/19 09:37:10;;;;;;;2.80;1.60;;;23.60;42.50;;;;;;4195872;28;20540;-83
2022/05/19 09:39:15;;;;;;;3.00;1.70;;;23.70;42.70;;;;;;4196099;28;20590;-83
2022/05/19 09:41:25;;;;;;;3.67;1.73;;;23.80;43.30;;;;;;4193439;28;20202;-82
2022/05/19 09:43:29;;;;;;;2.80;1.70;;;24.00;43.70;;;;;;4193881;28;20201;-82
2022/05/19 09:45:38;;;;;;;7.90;1.67;;;23.90;42.80;;;;;;4195997;28;20233;-83
2022/05/19 09:47:45;;;;;;;8.27;1.60;;;24.00;43.30;;;;;;4195252;28;20212;-82
2022/05/19 09:49:55;;;;;;;5.17;1.70;;;24.00;41.90;;;;;;4176051;28;20209;-83
2022/05/19 09:52:02;;;;;;;3.40;1.60;;;24.10;41.90;;;;;;4179139;28;20202;-82
2022/05/19 09:54:05;;;;;;;4.30;1.60;;;24.20;41.60;;;;;;4195893;28;20269;-83
2022/05/19 09:56:10;;;;;;;1.70;1.30;;;24.30;41.90;;;;;;4176228;28;20301;-82
2022/05/19 09:58:17;;;;;;;5.23;1.57;;;24.40;42.20;;;;;;4178068;28;20210;-81
2022/05/19 10:00:32;;;;;;;6.13;1.60;;;24.50;41.90;;;;;;4172602;28;20230;-81
2022/05/19 10:02:40;;;;;;;7.63;1.63;;;24.60;42.00;;;;;;4186212;28;20580;-81
2022/05/19 10:04:49;;;;;;;2.70;1.60;;;24.80;41.70;;;;;;4169679;28;20295;-82
2022/05/19 10:06:54;;;;;;;6.60;1.60;;;24.80;41.40;;;;;;4190061;28;20702;-79
2022/05/19 10:09:06;;;;;;;5.03;1.90;;;25.00;41.50;;;;;;4173464;28;20264;-79
2022/05/19 10:11:21;;;;;;;2.90;1.70;;;25.10;41.00;;;;;;4188524;28;20205;-83
2022/05/19 10:13:29;;;;;;;4.70;1.53;;;25.20;40.90;;;;;;4189507;28;20232;-81
2022/05/19 10:15:44;;;;;;;3.87;2.00;;;25.40;40.30;;;;;;4189075;28;20250;-80
2022/05/19 10:17:57;;;;;;;3.60;1.50;;;25.40;39.70;;;;;;4190713;28;20227;-83
2022/05/19 10:20:06;;;;;;;6.13;1.90;;;25.60;39.60;;;;;;4189996;28;20237;-81
2022/05/19 10:22:48;;;;;;;4.37;1.43;;;25.70;39.20;;;;;;4189468;28;20201;-82
2022/05/19 10:25:12;;;;;;;6.13;1.50;;;25.80;38.60;;;;;;4191583;28;20233;-80
2022/05/19 10:32:27;;;;;;;3.33;1.77;;;26.20;38.40;;;;;;4185112;28;20198;-81
2022/05/19 10:34:42;;;;;;;3.13;1.50;;;26.20;38.50;;;;;;4187410;28;20701;-82
2022/05/19 10:36:52;;;;;;;3.27;1.50;;;26.30;39.10;;;;;;4192167;28;20218;-79
2022/05/19 10:39:07;;;;;;;3.53;1.80;;;26.50;38.90;;;;;;4188094;28;20201;-80
2022/05/19 10:41:31;;;;;;;7.50;1.57;;;26.60;37.70;;;;;;4191002;28;20274;-79
2022/05/19 10:43:47;;;;;;;2.73;1.70;;;26.80;36.80;;;;;;4173442;28;20222;-81
2022/05/19 10:45:51;;;;;;;4.77;1.70;;;26.90;37.50;;;;;;4192561;28;20673;-80
2022/05/19 10:48:17;;;;;;;2.77;1.60;;;27.10;37.30;;;;;;4174239;28;20207;-82
2022/05/19 10:50:28;;;;;;;6.67;2.20;;;27.20;36.10;;;;;;4190785;28;20198;-83
2022/05/19 10:52:44;;;;;;;2.90;1.53;;;27.40;35.90;;;;;;4196086;28;20206;-81
2022/05/19 10:55:01;;;;;;;5.80;1.80;;;27.50;35.30;;;;;;4194250;28;20233;-79
2022/05/19 10:57:27;;;;;;;2.50;1.43;;;27.70;35.40;;;;;;4193186;28;20206;-85
2022/05/19 10:59:56;;;;;;;3.90;1.63;;;27.80;33.80;;;;;;4180612;28;20264;-82
2022/05/19 11:02:10;;;;;;;3.50;1.43;;;27.90;33.50;;;;;;4176204;28;20198;-80
2022/05/19 11:04:39;;;;;;;1.67;1.47;;;28.00;33.50;;;;;;4194076;28;20236;-83
2022/05/19 11:07:27;;;;;;;3.23;1.40;;;28.20;33.40;;;;;;4192598;28;20202;-83
2022/05/19 11:09:43;;;;;;;3.73;1.90;;;28.50;33.20;;;;;;4166790;28;20221;-82
2022/05/19 11:11:55;;;;;;;2.53;1.60;;;28.70;32.80;;;;;;4198262;28;20205;-84
2022/05/19 11:14:09;;;;;;;4.03;1.60;;;29.00;32.10;;;;;;4196757;28;20214;-81
2022/05/19 11:16:19;;;;;;;6.40;1.60;;;29.20;31.90;;;;;;4196769;28;20213;-82
2022/05/19 11:18:29;;;;;;;5.47;1.30;;;29.40;31.60;;;;;;4194434;28;20244;-84
2022/05/19 11:20:37;;;;;;;3.20;1.50;;;29.50;31.40;;;;;;4192807;28;20225;-84
2022/05/19 11:22:40;;;;;;;3.77;1.50;;;29.60;31.00;;;;;;4198923;28;20206;-81
2022/05/19 11:27:11;;;;;;;2.05;1.48;;;29.90;31.50;;;;;;4166124;28;20245;-84
2022/05/19 11:29:29;;;;;;;3.67;1.50;;;30.10;31.50;;;;;;4178920;28;20214;-84
2022/05/19 11:31:38;;;;;;;4.15;1.35;;;30.30;31.60;;;;;;4194936;28;20209;-84
2022/05/19 11:33:43;;;;;;;4.68;1.80;;;30.60;31.50;;;;;;4196065;28;20206;-82
2022/05/19 11:35:50;;;;;;;2.95;1.52;;;30.80;30.30;;;;;;4172877;28;20623;-84
2022/05/19 11:37:58;;;;;;;5.43;1.40;;;31.10;29.80;;;;;;4192984;28;20205;-83
2022/05/19 11:40:11;;;;;;;3.13;1.33;;;31.50;29.00;;;;;;4190278;28;20206;-81
2022/05/19 11:42:30;;;;;;;2.95;1.25;;;31.90;27.80;;;;;;4193630;28;20214;-82
2022/05/19 11:44:38;;;;;;;2.15;1.20;;;32.50;27.20;;;;;;4194142;28;20303;-80
2022/05/19 11:46:47;;;;;;;5.15;1.13;;;33.10;26.70;;;;;;4187559;28;20209;-79
2022/05/19 11:56:06;;;;;;;1.95;1.00;;;35.70;25.20;;;;;;4185083;28;20234;-83
2022/05/19 11:58:17;;;;;;;1.35;1.10;;;36.40;24.80;;;;;;4192481;28;20210;-82
2022/05/19 12:00:26;;;;;;;6.03;1.23;;;36.90;24.50;;;;;;4192288;28;20225;-82
2022/05/19 12:02:33;;;;;;;4.65;1.23;;;37.30;23.70;;;;;;4193054;28;20271;-81
2022/05/19 12:04:38;;;;;;;2.88;1.13;;;37.60;23.60;;;;;;4192206;28;20241;-82